sensor_id;sensor_type;location;lat;lon;timestamp;P1;durP1;ratioP1;P2;durP2;ratioP2
27161;SDS011;54464;50.558;9.704;2023-03-24T00:02:11;4.00;;;3.37;;
27161;SDS011;54464;50.558;9.704;2023-03-24T00:04:37;4.40;;;4.00;;
27161;SDS011;54464;50.558;9.704;2023-03-24T00:07:06;5.53;;;3.67;;
27161;SDS011;54464;50.558;9.704;2023-03-24T00:09:42;5.60;;;4.00;;
27161;SDS011;54464;50.558;9.704;2023-03-24T00:12:08;5.23;;;4.50;;
27161;SDS011;54464;50.558;9.704;2023-03-24T00:14:36;8.30;;;4.23;;
27161;SDS011;54464;50.558;9.704;2023-03-24T00:17:20;3.97;;;3.40;;
27161;SDS011;54464;50.558;9.704;2023-03-24T00:19:49;5.70;;;4.23;;
27161;SDS011;54464;50.558;9.704;2023-03-24T00:22:16;5.10;;;4.60;;
27161;SDS011;54464;50.558;9.704;2023-03-24T00:24:42;5.57;;;4.20;;
27161;SDS011;54464;50.558;9.704;2023-03-24T00:27:10;8.53;;;4.70;;
27161;SDS011;54464;50.558;9.704;2023-03-24T00:29:37;4.40;;;3.93;;
27161;SDS011;54464;50.558;9.704;2023-03-24T00:32:04;5.67;;;4.87;;
27161;SDS011;54464;50.558;9.704;2023-03-24T00:34:30;5.90;;;5.30;;
27161;SDS011;54464;50.558;9.704;2023-03-24T00:36:58;6.63;;;5.80;;
27161;SDS011;54464;50.558;9.704;2023-03-24T00:39:23;6.83;;;6.13;;
27161;SDS011;54464;50.558;9.704;2023-03-24T00:41:49;6.30;;;5.67;;
27161;SDS011;54464;50.558;9.704;2023-03-24T00:44:15;7.77;;;5.33;;
27161;SDS011;54464;50.558;9.704;2023-03-24T00:46:44;5.83;;;5.23;;
27161;SDS011;54464;50.558;9.704;2023-03-24T00:49:23;8.47;;;5.97;;
27161;SDS011;54464;50.558;9.704;2023-03-24T00:52:07;6.23;;;5.63;;
27161;SDS011;54464;50.558;9.704;2023-03-24T00:54:34;7.67;;;5.80;;
27161;SDS011;54464;50.558;9.704;2023-03-24T00:57:01;7.00;;;5.70;;
27161;SDS011;54464;50.558;9.704;2023-03-24T01:02:01;6.33;;;5.73;;
27161;SDS011;54464;50.558;9.704;2023-03-24T01:04:27;6.30;;;4.93;;
27161;SDS011;54464;50.558;9.704;2023-03-24T01:06:54;5.87;;;5.10;;
27161;SDS011;54464;50.558;9.704;2023-03-24T01:09:22;7.00;;;5.50;;
27161;SDS011;54464;50.558;9.704;2023-03-24T01:11:48;9.33;;;5.63;;
27161;SDS011;54464;50.558;9.704;2023-03-24T01:14:14;5.30;;;4.80;;
27161;SDS011;54464;50.558;9.704;2023-03-24T01:16:40;5.53;;;4.17;;
27161;SDS011;54464;50.558;9.704;2023-03-24T01:19:06;5.97;;;3.40;;
27161;SDS011;54464;50.558;9.704;2023-03-24T01:21:33;4.43;;;4.03;;
27161;SDS011;54464;50.558;9.704;2023-03-24T01:23:59;6.50;;;4.57;;
27161;SDS011;54464;50.558;9.704;2023-03-24T01:26:26;6.23;;;4.53;;
27161;SDS011;54464;50.558;9.704;2023-03-24T01:28:52;5.87;;;4.27;;
27161;SDS011;54464;50.558;9.704;2023-03-24T01:31:18;4.80;;;2.90;;
27161;SDS011;54464;50.558;9.704;2023-03-24T01:33:43;4.83;;;4.10;;
27161;SDS011;54464;50.558;9.704;2023-03-24T01:36:09;4.33;;;3.93;;
27161;SDS011;54464;50.558;9.704;2023-03-24T01:38:35;4.70;;;4.13;;
27161;SDS011;54464;50.558;9.704;2023-03-24T01:41:02;4.60;;;4.20;;
27161;SDS011;54464;50.558;9.704;2023-03-24T01:43:30;4.77;;;4.30;;
27161;SDS011;54464;50.558;9.704;2023-03-24T01:48:31;5.37;;;4.07;;
27161;SDS011;54464;50.558;9.704;2023-03-24T01:53:55;4.57;;;4.00;;
27161;SDS011;54464;50.558;9.704;2023-03-24T01:56:27;4.90;;;4.40;;
27161;SDS011;54464;50.558;9.704;2023-03-24T01:58:56;6.67;;;4.40;;
27161;SDS011;54464;50.558;9.704;2023-03-24T02:01:25;6.93;;;4.30;;
27161;SDS011;54464;50.558;9.704;2023-03-24T02:03:54;6.63;;;4.87;;
27161;SDS011;54464;50.558;9.704;2023-03-24T02:06:24;5.10;;;4.20;;
27161;SDS011;54464;50.558;9.704;2023-03-24T02:08:54;5.30;;;4.40;;
27161;SDS011;54464;50.558;9.704;2023-03-24T02:11:22;5.27;;;4.77;;
27161;SDS011;54464;50.558;9.704;2023-03-24T02:13:50;5.23;;;4.73;;
27161;SDS011;54464;50.558;9.704;2023-03-24T02:25:23;5.00;;;4.30;;
27161;SDS011;54464;50.558;9.704;2023-03-24T02:33:57;5.37;;;4.87;;
27161;SDS011;54464;50.558;9.704;2023-03-24T02:41:58;5.57;;;3.90;;
27161;SDS011;54464;50.558;9.704;2023-03-24T02:47:17;4.60;;;3.40;;
27161;SDS011;54464;50.558;9.704;2023-03-24T02:52:58;5.70;;;3.43;;
27161;SDS011;54464;50.558;9.704;2023-03-24T02:55:38;4.40;;;3.07;;
27161;SDS011;54464;50.558;9.704;2023-03-24T03:01:11;4.17;;;2.93;;
27161;SDS011;54464;50.558;9.704;2023-03-24T03:03:57;3.60;;;2.93;;
27161;SDS011;54464;50.558;9.704;2023-03-24T03:06:27;2.87;;;2.60;;
27161;SDS011;54464;50.558;9.704;2023-03-24T03:08:56;4.80;;;3.60;;
27161;SDS011;54464;50.558;9.704;2023-03-24T03:11:25;4.77;;;3.67;;
27161;SDS011;54464;50.558;9.704;2023-03-24T03:13:51;5.37;;;4.03;;
27161;SDS011;54464;50.558;9.704;2023-03-24T03:16:23;4.50;;;2.93;;
27161;SDS011;54464;50.558;9.704;2023-03-24T03:19:03;4.10;;;3.40;;
27161;SDS011;54464;50.558;9.704;2023-03-24T03:21:36;4.27;;;3.80;;
27161;SDS011;54464;50.558;9.704;2023-03-24T03:24:10;6.00;;;3.80;;
27161;SDS011;54464;50.558;9.704;2023-03-24T03:26:50;4.90;;;4.40;;
27161;SDS011;54464;50.558;9.704;2023-03-24T03:29:21;5.73;;;4.30;;
27161;SDS011;54464;50.558;9.704;2023-03-24T03:31:53;4.60;;;4.00;;
27161;SDS011;54464;50.558;9.704;2023-03-24T03:40:12;5.37;;;4.87;;
27161;SDS011;54464;50.558;9.704;2023-03-24T03:42:42;5.27;;;4.70;;
27161;SDS011;54464;50.558;9.704;2023-03-24T03:45:09;5.93;;;4.80;;
27161;SDS011;54464;50.558;9.704;2023-03-24T03:47:36;6.03;;;4.47;;
27161;SDS011;54464;50.558;9.704;2023-03-24T03:50:02;6.07;;;4.70;;
27161;SDS011;54464;50.558;9.704;2023-03-24T03:52:29;5.77;;;4.80;;
27161;SDS011;54464;50.558;9.704;2023-03-24T03:54:55;5.10;;;4.57;;
27161;SDS011;54464;50.558;9.704;2023-03-24T03:57:23;4.23;;;3.27;;
27161;SDS011;54464;50.558;9.704;2023-03-24T03:59:49;5.53;;;4.80;;
27161;SDS011;54464;50.558;9.704;2023-03-24T04:13:36;6.00;;;3.90;;
27161;SDS011;54464;50.558;9.704;2023-03-24T04:27:38;5.03;;;4.40;;
27161;SDS011;54464;50.558;9.704;2023-03-24T04:33:02;5.07;;;4.40;;
27161;SDS011;54464;50.558;9.704;2023-03-24T04:35:34;5.97;;;4.33;;
27161;SDS011;54464;50.558;9.704;2023-03-24T04:38:05;5.20;;;4.23;;
27161;SDS011;54464;50.558;9.704;2023-03-24T04:40:35;7.57;;;4.10;;
27161;SDS011;54464;50.558;9.704;2023-03-24T04:43:05;4.93;;;4.30;;
27161;SDS011;54464;50.558;9.704;2023-03-24T04:45:37;4.73;;;4.00;;
27161;SDS011;54464;50.558;9.704;2023-03-24T04:48:04;4.83;;;4.30;;
27161;SDS011;54464;50.558;9.704;2023-03-24T04:50:36;7.40;;;4.10;;
27161;SDS011;54464;50.558;9.704;2023-03-24T04:53:05;4.70;;;4.30;;
27161;SDS011;54464;50.558;9.704;2023-03-24T04:58:31;6.53;;;4.33;;
27161;SDS011;54464;50.558;9.704;2023-03-24T05:00:57;5.27;;;4.43;;
27161;SDS011;54464;50.558;9.704;2023-03-24T05:03:23;5.63;;;4.17;;
27161;SDS011;54464;50.558;9.704;2023-03-24T05:05:50;6.40;;;5.30;;
27161;SDS011;54464;50.558;9.704;2023-03-24T05:08:17;5.53;;;4.53;;
27161;SDS011;54464;50.558;9.704;2023-03-24T05:10:43;4.70;;;3.87;;
27161;SDS011;54464;50.558;9.704;2023-03-24T05:13:10;7.13;;;4.50;;
27161;SDS011;54464;50.558;9.704;2023-03-24T05:15:36;5.60;;;4.90;;
27161;SDS011;54464;50.558;9.704;2023-03-24T05:18:03;6.23;;;5.13;;
27161;SDS011;54464;50.558;9.704;2023-03-24T05:20:29;7.70;;;3.80;;
27161;SDS011;54464;50.558;9.704;2023-03-24T05:22:55;7.20;;;5.47;;
27161;SDS011;54464;50.558;9.704;2023-03-24T05:25:21;6.03;;;5.27;;
27161;SDS011;54464;50.558;9.704;2023-03-24T05:27:47;7.17;;;5.63;;
27161;SDS011;54464;50.558;9.704;2023-03-24T05:30:13;6.30;;;5.33;;
27161;SDS011;54464;50.558;9.704;2023-03-24T05:32:39;7.27;;;5.00;;
27161;SDS011;54464;50.558;9.704;2023-03-24T05:35:06;6.87;;;5.20;;
27161;SDS011;54464;50.558;9.704;2023-03-24T05:37:32;5.33;;;4.13;;
27161;SDS011;54464;50.558;9.704;2023-03-24T05:39:57;9.83;;;6.90;;
27161;SDS011;54464;50.558;9.704;2023-03-24T05:42:23;9.90;;;7.13;;
27161;SDS011;54464;50.558;9.704;2023-03-24T05:44:49;6.87;;;5.37;;
27161;SDS011;54464;50.558;9.704;2023-03-24T05:47:15;6.30;;;4.83;;
27161;SDS011;54464;50.558;9.704;2023-03-24T05:49:44;11.17;;;7.73;;
27161;SDS011;54464;50.558;9.704;2023-03-24T05:52:10;10.03;;;7.43;;
27161;SDS011;54464;50.558;9.704;2023-03-24T05:54:38;10.67;;;7.63;;
27161;SDS011;54464;50.558;9.704;2023-03-24T05:57:05;7.13;;;5.77;;
27161;SDS011;54464;50.558;9.704;2023-03-24T05:59:32;8.87;;;7.07;;
27161;SDS011;54464;50.558;9.704;2023-03-24T06:01:59;10.40;;;7.73;;
27161;SDS011;54464;50.558;9.704;2023-03-24T06:04:24;11.27;;;7.60;;
27161;SDS011;54464;50.558;9.704;2023-03-24T06:06:53;4.37;;;3.73;;
27161;SDS011;54464;50.558;9.704;2023-03-24T06:09:20;8.57;;;6.17;;
27161;SDS011;54464;50.558;9.704;2023-03-24T06:11:46;9.43;;;7.73;;
27161;SDS011;54464;50.558;9.704;2023-03-24T06:14:11;7.03;;;5.93;;
27161;SDS011;54464;50.558;9.704;2023-03-24T06:16:37;8.23;;;6.77;;
27161;SDS011;54464;50.558;9.704;2023-03-24T06:19:03;8.83;;;6.80;;
27161;SDS011;54464;50.558;9.704;2023-03-24T06:21:32;8.30;;;5.03;;
27161;SDS011;54464;50.558;9.704;2023-03-24T06:23:58;11.40;;;7.20;;
27161;SDS011;54464;50.558;9.704;2023-03-24T06:26:24;13.33;;;8.50;;
27161;SDS011;54464;50.558;9.704;2023-03-24T06:28:51;12.67;;;10.13;;
27161;SDS011;54464;50.558;9.704;2023-03-24T06:31:17;10.23;;;6.80;;
27161;SDS011;54464;50.558;9.704;2023-03-24T06:33:44;8.80;;;7.63;;
27161;SDS011;54464;50.558;9.704;2023-03-24T06:36:11;11.33;;;8.40;;
27161;SDS011;54464;50.558;9.704;2023-03-24T06:38:37;9.90;;;7.80;;
27161;SDS011;54464;50.558;9.704;2023-03-24T06:41:04;10.57;;;7.50;;
27161;SDS011;54464;50.558;9.704;2023-03-24T06:43:30;10.73;;;9.10;;
27161;SDS011;54464;50.558;9.704;2023-03-24T06:45:56;8.90;;;7.37;;
27161;SDS011;54464;50.558;9.704;2023-03-24T06:48:21;8.30;;;6.87;;
27161;SDS011;54464;50.558;9.704;2023-03-24T06:50:47;8.17;;;7.30;;
27161;SDS011;54464;50.558;9.704;2023-03-24T06:53:13;6.70;;;5.40;;
27161;SDS011;54464;50.558;9.704;2023-03-24T06:55:39;9.77;;;8.50;;
27161;SDS011;54464;50.558;9.704;2023-03-24T06:58:05;10.40;;;7.57;;
27161;SDS011;54464;50.558;9.704;2023-03-24T07:00:31;4.97;;;4.23;;
27161;SDS011;54464;50.558;9.704;2023-03-24T07:02:56;9.47;;;7.00;;
27161;SDS011;54464;50.558;9.704;2023-03-24T07:05:22;10.67;;;8.70;;
27161;SDS011;54464;50.558;9.704;2023-03-24T07:07:48;7.50;;;5.70;;
27161;SDS011;54464;50.558;9.704;2023-03-24T07:10:14;6.47;;;5.87;;
27161;SDS011;54464;50.558;9.704;2023-03-24T07:12:39;6.37;;;5.70;;
27161;SDS011;54464;50.558;9.704;2023-03-24T07:15:05;7.33;;;6.23;;
27161;SDS011;54464;50.558;9.704;2023-03-24T07:17:32;7.60;;;6.87;;
27161;SDS011;54464;50.558;9.704;2023-03-24T07:19:58;6.00;;;5.40;;
27161;SDS011;54464;50.558;9.704;2023-03-24T07:22:24;7.27;;;6.57;;
27161;SDS011;54464;50.558;9.704;2023-03-24T07:24:50;6.73;;;6.03;;
27161;SDS011;54464;50.558;9.704;2023-03-24T07:27:16;7.40;;;6.40;;
27161;SDS011;54464;50.558;9.704;2023-03-24T07:29:41;6.90;;;6.20;;
27161;SDS011;54464;50.558;9.704;2023-03-24T07:32:07;9.33;;;7.17;;
27161;SDS011;54464;50.558;9.704;2023-03-24T07:34:33;6.67;;;5.97;;
27161;SDS011;54464;50.558;9.704;2023-03-24T07:37:00;4.33;;;3.80;;
27161;SDS011;54464;50.558;9.704;2023-03-24T07:39:26;5.00;;;4.10;;
27161;SDS011;54464;50.558;9.704;2023-03-24T07:41:52;3.20;;;2.90;;
27161;SDS011;54464;50.558;9.704;2023-03-24T07:44:17;4.33;;;3.70;;
27161;SDS011;54464;50.558;9.704;2023-03-24T07:46:43;5.47;;;4.97;;
27161;SDS011;54464;50.558;9.704;2023-03-24T07:49:09;5.90;;;4.73;;
27161;SDS011;54464;50.558;9.704;2023-03-24T07:51:36;4.73;;;4.13;;
27161;SDS011;54464;50.558;9.704;2023-03-24T07:54:01;3.57;;;2.73;;
27161;SDS011;54464;50.558;9.704;2023-03-24T07:56:27;3.87;;;3.47;;
27161;SDS011;54464;50.558;9.704;2023-03-24T07:58:53;5.50;;;3.90;;
27161;SDS011;54464;50.558;9.704;2023-03-24T08:01:18;4.00;;;3.07;;
27161;SDS011;54464;50.558;9.704;2023-03-24T08:03:44;4.37;;;3.53;;
27161;SDS011;54464;50.558;9.704;2023-03-24T08:06:12;4.60;;;4.10;;
27161;SDS011;54464;50.558;9.704;2023-03-24T08:08:38;3.13;;;2.80;;
27161;SDS011;54464;50.558;9.704;2023-03-24T08:11:04;4.30;;;3.97;;
27161;SDS011;54464;50.558;9.704;2023-03-24T08:13:30;4.90;;;4.40;;
27161;SDS011;54464;50.558;9.704;2023-03-24T08:15:55;5.37;;;3.60;;
27161;SDS011;54464;50.558;9.704;2023-03-24T08:18:21;3.50;;;3.20;;
27161;SDS011;54464;50.558;9.704;2023-03-24T08:20:48;3.37;;;2.40;;
27161;SDS011;54464;50.558;9.704;2023-03-24T08:23:14;4.07;;;3.67;;
27161;SDS011;54464;50.558;9.704;2023-03-24T08:25:42;2.80;;;2.27;;
27161;SDS011;54464;50.558;9.704;2023-03-24T08:28:07;1.93;;;1.73;;
27161;SDS011;54464;50.558;9.704;2023-03-24T08:30:33;3.57;;;3.27;;
27161;SDS011;54464;50.558;9.704;2023-03-24T08:33:00;4.63;;;3.70;;
27161;SDS011;54464;50.558;9.704;2023-03-24T08:35:28;2.67;;;2.43;;
27161;SDS011;54464;50.558;9.704;2023-03-24T08:37:58;2.87;;;2.57;;
27161;SDS011;54464;50.558;9.704;2023-03-24T08:40:26;4.83;;;3.37;;
27161;SDS011;54464;50.558;9.704;2023-03-24T08:42:53;3.83;;;3.10;;
27161;SDS011;54464;50.558;9.704;2023-03-24T08:45:22;5.00;;;3.93;;
27161;SDS011;54464;50.558;9.704;2023-03-24T08:47:51;5.47;;;3.20;;
27161;SDS011;54464;50.558;9.704;2023-03-24T08:50:17;4.80;;;3.67;;
27161;SDS011;54464;50.558;9.704;2023-03-24T08:52:48;4.67;;;3.90;;
27161;SDS011;54464;50.558;9.704;2023-03-24T08:55:17;6.60;;;5.27;;
27161;SDS011;54464;50.558;9.704;2023-03-24T08:57:43;4.97;;;4.37;;
27161;SDS011;54464;50.558;9.704;2023-03-24T09:00:09;4.73;;;4.23;;
27161;SDS011;54464;50.558;9.704;2023-03-24T09:02:38;8.90;;;8.00;;
27161;SDS011;54464;50.558;9.704;2023-03-24T09:05:06;5.60;;;5.10;;
27161;SDS011;54464;50.558;9.704;2023-03-24T09:07:32;4.67;;;4.23;;
27161;SDS011;54464;50.558;9.704;2023-03-24T09:09:57;4.97;;;4.47;;
27161;SDS011;54464;50.558;9.704;2023-03-24T09:12:23;4.77;;;4.07;;
27161;SDS011;54464;50.558;9.704;2023-03-24T09:14:49;3.20;;;2.50;;
27161;SDS011;54464;50.558;9.704;2023-03-24T09:17:15;4.00;;;3.60;;
27161;SDS011;54464;50.558;9.704;2023-03-24T09:19:41;4.80;;;4.40;;
27161;SDS011;54464;50.558;9.704;2023-03-24T09:22:07;5.40;;;4.90;;
27161;SDS011;54464;50.558;9.704;2023-03-24T09:24:32;4.73;;;3.90;;
27161;SDS011;54464;50.558;9.704;2023-03-24T09:26:58;5.50;;;5.10;;
27161;SDS011;54464;50.558;9.704;2023-03-24T09:29:24;4.23;;;3.90;;
27161;SDS011;54464;50.558;9.704;2023-03-24T09:31:50;3.87;;;3.47;;
27161;SDS011;54464;50.558;9.704;2023-03-24T09:34:17;6.13;;;3.70;;
27161;SDS011;54464;50.558;9.704;2023-03-24T09:36:43;4.53;;;3.33;;
27161;SDS011;54464;50.558;9.704;2023-03-24T09:39:09;3.43;;;3.10;;
27161;SDS011;54464;50.558;9.704;2023-03-24T09:41:34;3.73;;;3.43;;
27161;SDS011;54464;50.558;9.704;2023-03-24T09:44:06;3.50;;;3.20;;
27161;SDS011;54464;50.558;9.704;2023-03-24T09:46:42;5.40;;;3.83;;
27161;SDS011;54464;50.558;9.704;2023-03-24T09:49:20;5.17;;;4.67;;
27161;SDS011;54464;50.558;9.704;2023-03-24T09:51:49;4.67;;;3.70;;
27161;SDS011;54464;50.558;9.704;2023-03-24T09:55:02;5.03;;;4.23;;
27161;SDS011;54464;50.558;9.704;2023-03-24T09:57:38;3.17;;;2.50;;
27161;SDS011;54464;50.558;9.704;2023-03-24T10:02:47;4.07;;;3.67;;
27161;SDS011;54464;50.558;9.704;2023-03-24T10:05:15;4.20;;;3.90;;
27161;SDS011;54464;50.558;9.704;2023-03-24T10:07:51;3.10;;;1.90;;
27161;SDS011;54464;50.558;9.704;2023-03-24T10:13:18;2.90;;;1.10;;
27161;SDS011;54464;50.558;9.704;2023-03-24T10:15:54;4.17;;;1.30;;
27161;SDS011;54464;50.558;9.704;2023-03-24T10:18:35;2.93;;;1.10;;
27161;SDS011;54464;50.558;9.704;2023-03-24T10:21:25;3.87;;;1.50;;
27161;SDS011;54464;50.558;9.704;2023-03-24T10:26:53;1.73;;;0.83;;
27161;SDS011;54464;50.558;9.704;2023-03-24T10:29:34;3.30;;;1.80;;
27161;SDS011;54464;50.558;9.704;2023-03-24T10:32:07;3.73;;;1.67;;
27161;SDS011;54464;50.558;9.704;2023-03-24T10:34:44;7.10;;;4.60;;
27161;SDS011;54464;50.558;9.704;2023-03-24T10:37:19;5.00;;;2.30;;
27161;SDS011;54464;50.558;9.704;2023-03-24T10:39:45;3.67;;;1.90;;
27161;SDS011;54464;50.558;9.704;2023-03-24T10:42:15;2.50;;;1.83;;
27161;SDS011;54464;50.558;9.704;2023-03-24T10:44:46;4.37;;;2.50;;
27161;SDS011;54464;50.558;9.704;2023-03-24T10:47:13;8.87;;;4.97;;
27161;SDS011;54464;50.558;9.704;2023-03-24T10:49:51;13.60;;;7.30;;
27161;SDS011;54464;50.558;9.704;2023-03-24T10:52:37;3.23;;;1.50;;
27161;SDS011;54464;50.558;9.704;2023-03-24T10:55:04;2.67;;;1.50;;
27161;SDS011;54464;50.558;9.704;2023-03-24T10:57:31;1.90;;;1.60;;
27161;SDS011;54464;50.558;9.704;2023-03-24T11:02:29;7.67;;;6.37;;
27161;SDS011;54464;50.558;9.704;2023-03-24T11:05:00;4.87;;;2.87;;
27161;SDS011;54464;50.558;9.704;2023-03-24T11:07:37;9.47;;;5.80;;
27161;SDS011;54464;50.558;9.704;2023-03-24T11:12:34;2.37;;;1.40;;
27161;SDS011;54464;50.558;9.704;2023-03-24T11:15:13;3.50;;;2.10;;
27161;SDS011;54464;50.558;9.704;2023-03-24T11:17:41;3.73;;;2.27;;
27161;SDS011;54464;50.558;9.704;2023-03-24T11:20:18;2.93;;;1.80;;
27161;SDS011;54464;50.558;9.704;2023-03-24T11:25:26;3.17;;;2.00;;
27161;SDS011;54464;50.558;9.704;2023-03-24T11:27:56;4.03;;;1.60;;
27161;SDS011;54464;50.558;9.704;2023-03-24T11:30:28;4.93;;;1.57;;
27161;SDS011;54464;50.558;9.704;2023-03-24T11:32:58;3.53;;;2.10;;
27161;SDS011;54464;50.558;9.704;2023-03-24T11:35:26;5.43;;;1.80;;
27161;SDS011;54464;50.558;9.704;2023-03-24T11:37:52;6.43;;;1.93;;
27161;SDS011;54464;50.558;9.704;2023-03-24T11:40:22;4.23;;;1.73;;
27161;SDS011;54464;50.558;9.704;2023-03-24T11:42:51;7.23;;;2.33;;
27161;SDS011;54464;50.558;9.704;2023-03-24T11:45:26;5.07;;;2.90;;
27161;SDS011;54464;50.558;9.704;2023-03-24T11:48:53;2.10;;;1.57;;
27161;SDS011;54464;50.558;9.704;2023-03-24T11:51:33;4.70;;;2.00;;
27161;SDS011;54464;50.558;9.704;2023-03-24T11:54:02;6.77;;;5.17;;
27161;SDS011;54464;50.558;9.704;2023-03-24T11:56:43;6.53;;;2.23;;
27161;SDS011;54464;50.558;9.704;2023-03-24T11:59:18;4.80;;;1.63;;
27161;SDS011;54464;50.558;9.704;2023-03-24T12:02:03;3.23;;;1.53;;
27161;SDS011;54464;50.558;9.704;2023-03-24T12:13:41;5.67;;;1.70;;
27161;SDS011;54464;50.558;9.704;2023-03-24T12:16:20;4.87;;;1.50;;
27161;SDS011;54464;50.558;9.704;2023-03-24T12:19:31;8.73;;;3.70;;
27161;SDS011;54464;50.558;9.704;2023-03-24T12:24:48;7.17;;;3.73;;
27161;SDS011;54464;50.558;9.704;2023-03-24T12:30:14;4.53;;;1.83;;
27161;SDS011;54464;50.558;9.704;2023-03-24T12:32:46;3.10;;;1.33;;
27161;SDS011;54464;50.558;9.704;2023-03-24T12:44:08;2.57;;;1.10;;
27161;SDS011;54464;50.558;9.704;2023-03-24T12:49:19;5.23;;;1.83;;
27161;SDS011;54464;50.558;9.704;2023-03-24T12:57:18;2.83;;;1.10;;
27161;SDS011;54464;50.558;9.704;2023-03-24T12:59:52;3.20;;;1.50;;
27161;SDS011;54464;50.558;9.704;2023-03-24T13:02:33;4.10;;;1.10;;
27161;SDS011;54464;50.558;9.704;2023-03-24T13:05:04;4.37;;;1.43;;
27161;SDS011;54464;50.558;9.704;2023-03-24T13:07:34;5.13;;;1.00;;
27161;SDS011;54464;50.558;9.704;2023-03-24T13:10:05;2.63;;;0.90;;
27161;SDS011;54464;50.558;9.704;2023-03-24T13:12:43;5.00;;;0.90;;
27161;SDS011;54464;50.558;9.704;2023-03-24T13:15:32;4.30;;;1.13;;
27161;SDS011;54464;50.558;9.704;2023-03-24T13:20:48;2.97;;;1.90;;
27161;SDS011;54464;50.558;9.704;2023-03-24T13:26:08;3.87;;;1.30;;
27161;SDS011;54464;50.558;9.704;2023-03-24T13:34:36;1.93;;;1.07;;
27161;SDS011;54464;50.558;9.704;2023-03-24T13:37:05;2.40;;;1.00;;
27161;SDS011;54464;50.558;9.704;2023-03-24T13:39:37;3.03;;;1.03;;
27161;SDS011;54464;50.558;9.704;2023-03-24T13:42:03;1.40;;;0.87;;
27161;SDS011;54464;50.558;9.704;2023-03-24T13:47:03;1.93;;;1.10;;
27161;SDS011;54464;50.558;9.704;2023-03-24T13:49:33;2.90;;;1.03;;
27161;SDS011;54464;50.558;9.704;2023-03-24T13:52:03;3.87;;;1.03;;
27161;SDS011;54464;50.558;9.704;2023-03-24T13:54:30;2.90;;;1.20;;
27161;SDS011;54464;50.558;9.704;2023-03-24T13:57:04;1.67;;;0.60;;
27161;SDS011;54464;50.558;9.704;2023-03-24T14:08:12;3.97;;;1.10;;
27161;SDS011;54464;50.558;9.704;2023-03-24T14:10:43;1.70;;;0.77;;
27161;SDS011;54464;50.558;9.704;2023-03-24T14:15:44;2.67;;;0.90;;
27161;SDS011;54464;50.558;9.704;2023-03-24T14:23:30;2.90;;;1.20;;
27161;SDS011;54464;50.558;9.704;2023-03-24T14:26:02;1.67;;;0.97;;
27161;SDS011;54464;50.558;9.704;2023-03-24T14:36:31;2.73;;;1.23;;
27161;SDS011;54464;50.558;9.704;2023-03-24T14:41:46;3.07;;;0.93;;
27161;SDS011;54464;50.558;9.704;2023-03-24T14:44:15;2.37;;;0.90;;
27161;SDS011;54464;50.558;9.704;2023-03-24T14:47:30;3.53;;;1.23;;
27161;SDS011;54464;50.558;9.704;2023-03-24T14:49:59;3.10;;;1.30;;
27161;SDS011;54464;50.558;9.704;2023-03-24T14:52:31;2.30;;;0.73;;
27161;SDS011;54464;50.558;9.704;2023-03-24T14:55:01;2.07;;;1.10;;
27161;SDS011;54464;50.558;9.704;2023-03-24T14:57:31;2.23;;;1.00;;
27161;SDS011;54464;50.558;9.704;2023-03-24T15:00:04;1.63;;;0.77;;
27161;SDS011;54464;50.558;9.704;2023-03-24T15:02:54;3.97;;;1.23;;
27161;SDS011;54464;50.558;9.704;2023-03-24T15:10:58;2.27;;;1.13;;
27161;SDS011;54464;50.558;9.704;2023-03-24T15:16:04;3.57;;;1.23;;
27161;SDS011;54464;50.558;9.704;2023-03-24T15:18:51;2.83;;;1.37;;
27161;SDS011;54464;50.558;9.704;2023-03-24T15:21:23;4.37;;;1.67;;
27161;SDS011;54464;50.558;9.704;2023-03-24T15:24:00;2.60;;;1.13;;
27161;SDS011;54464;50.558;9.704;2023-03-24T15:26:27;1.27;;;1.00;;
27161;SDS011;54464;50.558;9.704;2023-03-24T15:28:56;1.73;;;0.80;;
27161;SDS011;54464;50.558;9.704;2023-03-24T15:31:23;3.17;;;1.20;;
27161;SDS011;54464;50.558;9.704;2023-03-24T15:33:54;2.87;;;1.10;;
27161;SDS011;54464;50.558;9.704;2023-03-24T15:36:33;2.40;;;1.17;;
27161;SDS011;54464;50.558;9.704;2023-03-24T15:39:14;2.63;;;0.57;;
27161;SDS011;54464;50.558;9.704;2023-03-24T15:41:44;2.90;;;1.30;;
27161;SDS011;54464;50.558;9.704;2023-03-24T15:44:15;4.30;;;1.10;;
27161;SDS011;54464;50.558;9.704;2023-03-24T15:46:44;4.50;;;1.37;;
27161;SDS011;54464;50.558;9.704;2023-03-24T15:49:21;6.90;;;1.70;;
27161;SDS011;54464;50.558;9.704;2023-03-24T15:57:50;3.80;;;1.50;;
27161;SDS011;54464;50.558;9.704;2023-03-24T16:00:23;5.13;;;1.50;;
27161;SDS011;54464;50.558;9.704;2023-03-24T16:02:51;3.00;;;1.13;;
27161;SDS011;54464;50.558;9.704;2023-03-24T16:05:22;4.03;;;1.57;;
27161;SDS011;54464;50.558;9.704;2023-03-24T16:08:38;3.80;;;1.20;;
27161;SDS011;54464;50.558;9.704;2023-03-24T16:10:58;3.50;;;1.23;;
27161;SDS011;54464;50.558;9.704;2023-03-24T16:13:26;3.63;;;1.53;;
27161;SDS011;54464;50.558;9.704;2023-03-24T16:15:56;2.20;;;1.10;;
27161;SDS011;54464;50.558;9.704;2023-03-24T16:18:24;4.90;;;2.07;;
27161;SDS011;54464;50.558;9.704;2023-03-24T16:20:56;3.40;;;1.37;;
27161;SDS011;54464;50.558;9.704;2023-03-24T16:23:23;4.10;;;1.43;;
27161;SDS011;54464;50.558;9.704;2023-03-24T16:25:48;3.50;;;1.40;;
27161;SDS011;54464;50.558;9.704;2023-03-24T16:28:15;2.43;;;1.13;;
27161;SDS011;54464;50.558;9.704;2023-03-24T16:30:43;2.93;;;1.03;;
27161;SDS011;54464;50.558;9.704;2023-03-24T16:33:10;4.30;;;1.37;;
27161;SDS011;54464;50.558;9.704;2023-03-24T16:35:37;2.60;;;1.20;;
27161;SDS011;54464;50.558;9.704;2023-03-24T16:38:02;5.80;;;1.10;;
27161;SDS011;54464;50.558;9.704;2023-03-24T16:43:04;1.40;;;0.90;;
27161;SDS011;54464;50.558;9.704;2023-03-24T16:45:30;2.03;;;1.17;;
27161;SDS011;54464;50.558;9.704;2023-03-24T16:47:57;4.33;;;1.57;;
27161;SDS011;54464;50.558;9.704;2023-03-24T16:50:24;2.13;;;0.80;;
27161;SDS011;54464;50.558;9.704;2023-03-24T16:53:01;3.40;;;1.70;;
27161;SDS011;54464;50.558;9.704;2023-03-24T16:55:28;4.77;;;1.27;;
27161;SDS011;54464;50.558;9.704;2023-03-24T16:57:55;2.27;;;0.80;;
27161;SDS011;54464;50.558;9.704;2023-03-24T17:00:21;1.70;;;0.93;;
27161;SDS011;54464;50.558;9.704;2023-03-24T17:02:47;3.53;;;1.50;;
27161;SDS011;54464;50.558;9.704;2023-03-24T17:07:49;4.03;;;1.30;;
27161;SDS011;54464;50.558;9.704;2023-03-24T17:10:16;4.20;;;1.20;;
27161;SDS011;54464;50.558;9.704;2023-03-24T17:12:41;2.07;;;1.20;;
27161;SDS011;54464;50.558;9.704;2023-03-24T17:15:21;4.30;;;1.30;;
27161;SDS011;54464;50.558;9.704;2023-03-24T17:17:48;2.80;;;1.20;;
27161;SDS011;54464;50.558;9.704;2023-03-24T17:20:14;5.27;;;1.70;;
27161;SDS011;54464;50.558;9.704;2023-03-24T17:22:41;4.43;;;1.43;;
27161;SDS011;54464;50.558;9.704;2023-03-24T17:25:09;4.53;;;2.13;;
27161;SDS011;54464;50.558;9.704;2023-03-24T17:31:12;4.70;;;1.50;;
27161;SDS011;54464;50.558;9.704;2023-03-24T17:33:37;2.93;;;2.00;;
27161;SDS011;54464;50.558;9.704;2023-03-24T17:36:03;3.90;;;1.70;;
27161;SDS011;54464;50.558;9.704;2023-03-24T17:38:29;4.90;;;1.90;;
27161;SDS011;54464;50.558;9.704;2023-03-24T17:40:59;5.10;;;1.90;;
27161;SDS011;54464;50.558;9.704;2023-03-24T17:43:25;3.67;;;1.70;;
27161;SDS011;54464;50.558;9.704;2023-03-24T17:45:51;4.23;;;1.87;;
27161;SDS011;54464;50.558;9.704;2023-03-24T17:48:20;4.03;;;1.83;;
27161;SDS011;54464;50.558;9.704;2023-03-24T17:50:45;4.30;;;1.70;;
27161;SDS011;54464;50.558;9.704;2023-03-24T17:53:12;4.93;;;1.63;;
27161;SDS011;54464;50.558;9.704;2023-03-24T17:55:39;6.63;;;1.80;;
27161;SDS011;54464;50.558;9.704;2023-03-24T17:58:05;4.40;;;1.80;;
27161;SDS011;54464;50.558;9.704;2023-03-24T18:00:31;4.30;;;2.07;;
27161;SDS011;54464;50.558;9.704;2023-03-24T18:02:57;4.13;;;1.70;;
27161;SDS011;54464;50.558;9.704;2023-03-24T18:05:22;4.13;;;1.40;;
27161;SDS011;54464;50.558;9.704;2023-03-24T18:07:48;4.03;;;1.10;;